Time;durP1;ratioP1;P1;durP2;ratioP2;P2;SDS_P1;SDS_P2;PMS_P1;PMS_P2;Temp;Humidity;BMP_temperature;BMP_pressure;BME280_temperature;BME280_humidity;BME280_pressure;Samples;Min_cycle;Max_cycle;Signal;HPM_P1;HPM_P2
2022/07/10 00:01:51;;;;;;;;;;;;;;;15.11;100.00;99305.59;4910618;29;19926;-73
2022/07/10 00:04:17;;;;;;;;;;;;;;;15.00;100.00;99286.59;4910817;29;19962;-73
2022/07/10 00:06:46;;;;;;;;;;;;;;;15.01;100.00;99262.66;4925199;29;19933;-70
2022/07/10 00:09:12;;;;;;;;;;;;;;;14.86;100.00;99255.59;4910039;29;19946;-70
2022/07/10 00:11:38;;;;;;;;;;;;;;;14.84;100.00;99252.38;4912861;29;20065;-72
2022/07/10 00:14:03;;;;;;;;;;;;;;;14.79;100.00;99250.56;4925014;29;19982;-72
2022/07/10 00:16:29;;;;;;;;;;;;;;;14.75;100.00;99257.81;4908768;29;19933;-73
2022/07/10 00:18:55;;;;;;;;;;;;;;;14.76;100.00;99253.16;4925977;29;19931;-74
2022/07/10 00:21:21;;;;;;;;;;;;;;;14.87;100.00;99259.97;4911092;29;19927;-75
2022/07/10 00:23:50;;;;;;;;;;;;;;;15.07;100.00;99260.56;4911883;29;19935;-74
2022/07/10 00:26:16;;;;;;;;;;;;;;;15.25;100.00;99242.16;4910324;29;20309;-72
2022/07/10 00:28:42;;;;;;;;;;;;;;;15.28;100.00;99245.06;4924453;29;19927;-71
2022/07/10 00:31:10;;;;;;;;;;;;;;;15.19;100.00;99248.94;4926578;29;19931;-71
2022/07/10 00:33:37;;;;;;;;;;;;;;;15.10;100.00;99246.97;4924169;29;19961;-72
2022/07/10 00:36:03;;;;;;;;;;;;;;;15.16;100.00;99245.69;4923370;29;19934;-71
2022/07/10 00:38:29;;;;;;;;;;;;;;;15.14;100.00;99253.47;4909954;29;20450;-70
2022/07/10 00:40:56;;;;;;;;;;;;;;;15.21;100.00;99250.22;4907556;29;19935;-70
2022/07/10 00:43:22;;;;;;;;;;;;;;;15.30;100.00;99251.06;4908166;29;19927;-71
2022/07/10 00:45:48;;;;;;;;;;;;;;;15.37;100.00;99247.03;4924833;29;19974;-71
2022/07/10 00:48:14;;;;;;;;;;;;;;;15.37;100.00;99247.84;4910931;29;19927;-73
2022/07/10 00:50:40;;;;;;;;;;;;;;;15.31;100.00;99241.69;4911882;29;19943;-74
2022/07/10 00:53:06;;;;;;;;;;;;;;;15.29;100.00;99254.13;4908752;29;20214;-72
2022/07/10 00:55:32;;;;;;;;;;;;;;;15.31;100.00;99262.91;4923061;29;20409;-73
2022/07/10 00:57:59;;;;;;;;;;;;;;;15.31;100.00;99265.66;4924360;29;20017;-73
2022/07/10 01:00:26;;;;;;;;;;;;;;;15.27;100.00;99262.72;4909341;29;19927;-73
2022/07/10 01:02:52;;;;;;;;;;;;;;;15.37;100.00;99249.78;4925468;29;19927;-73
2022/07/10 01:05:18;;;;;;;;;;;;;;;15.42;100.00;99249.66;4910947;29;19927;-73
2022/07/10 01:07:44;;;;;;;;;;;;;;;15.45;100.00;99249.81;4910242;29;19927;-73
2022/07/10 01:10:10;;;;;;;;;;;;;;;15.44;100.00;99247.38;4892355;29;20382;-74
2022/07/10 01:12:36;;;;;;;;;;;;;;;15.50;100.00;99250.81;4911502;29;19927;-72
2022/07/10 01:15:04;;;;;;;;;;;;;;;15.52;100.00;99241.06;4924032;29;19966;-73
2022/07/10 01:17:30;;;;;;;;;;;;;;;15.60;100.00;99244.97;4910016;29;19966;-73
2022/07/10 01:19:56;;;;;;;;;;;;;;;15.63;100.00;99249.84;4896912;29;19966;-72
2022/07/10 01:22:23;;;;;;;;;;;;;;;15.68;100.00;99240.59;4910761;29;19927;-72
2022/07/10 01:24:49;;;;;;;;;;;;;;;15.80;100.00;99243.53;4913238;29;19934;-72
2022/07/10 01:27:15;;;;;;;;;;;;;;;15.89;100.00;99254.59;4890752;29;19931;-73
2022/07/10 01:29:41;;;;;;;;;;;;;;;15.94;100.00;99248.94;4903738;29;20042;-72
2022/07/10 01:32:07;;;;;;;;;;;;;;;15.93;100.00;99236.28;4889807;29;20463;-71
2022/07/10 01:34:32;;;;;;;;;;;;;;;15.99;100.00;99226.69;4892278;29;19935;-71
2022/07/10 01:36:58;;;;;;;;;;;;;;;16.04;100.00;99219.41;4908312;29;20359;-70
2022/07/10 01:39:25;;;;;;;;;;;;;;;16.02;100.00;99217.78;4908693;29;20494;-71
2022/07/10 01:41:51;;;;;;;;;;;;;;;16.02;100.00;99209.50;4907582;29;20447;-70
2022/07/10 01:44:17;;;;;;;;;;;;;;;16.03;100.00;99210.31;4923175;29;20362;-71
2022/07/10 01:46:43;;;;;;;;;;;;;;;16.02;100.00;99216.97;4910145;29;20021;-72
2022/07/10 01:49:09;;;;;;;;;;;;;;;16.07;100.00;99207.72;4907346;29;20361;-71
2022/07/10 01:51:34;;;;;;;;;;;;;;;16.07;100.00;99218.72;4907020;29;19927;-70
2022/07/10 01:54:00;;;;;;;;;;;;;;;16.03;100.00;99210.31;4923647;29;19927;-72
2022/07/10 01:56:27;;;;;;;;;;;;;;;15.98;100.00;99216.81;4907665;29;19935;-70
2022/07/10 01:58:53;;;;;;;;;;;;;;;15.94;100.00;99223.28;4905719;29;19927;-71
2022/07/10 02:01:19;;;;;;;;;;;;;;;15.85;100.00;99218.59;4924070;29;19982;-69
2022/07/10 02:06:29;;;;;;;;;;;;;;;15.62;100.00;99225.38;4925563;29;20039;-71
2022/07/10 02:08:55;;;;;;;;;;;;;;;15.52;100.00;99218.22;4909074;29;20491;-73
2022/07/10 02:11:21;;;;;;;;;;;;;;;15.44;100.00;99228.09;4923904;29;20016;-74
2022/07/10 02:13:48;;;;;;;;;;;;;;;15.42;100.00;99220.16;4910308;29;19930;-73
2022/07/10 02:16:14;;;;;;;;;;;;;;;15.42;100.00;99222.91;4908561;29;19927;-72
2022/07/10 02:18:39;;;;;;;;;;;;;;;15.43;100.00;99216.25;4908924;29;19927;-73
2022/07/10 02:21:05;;;;;;;;;;;;;;;15.48;100.00;99214.50;4908786;29;20359;-72
2022/07/10 02:23:31;;;;;;;;;;;;;;;15.51;100.00;99216.59;4909194;29;20021;-71
2022/07/10 02:25:57;;;;;;;;;;;;;;;15.52;100.00;99213.50;4920366;29;20441;-71
2022/07/10 02:28:22;;;;;;;;;;;;;;;15.53;100.00;99220.66;4905935;29;19962;-71
2022/07/10 02:30:50;;;;;;;;;;;;;;;15.53;100.00;99211.59;4907818;29;19935;-70
2022/07/10 02:33:15;;;;;;;;;;;;;;;15.59;100.00;99226.81;4908182;29;19927;-71
2022/07/10 02:35:41;;;;;;;;;;;;;;;15.67;100.00;99236.22;4922773;29;19927;-72
2022/07/10 02:38:07;;;;;;;;;;;;;;;15.77;100.00;99240.63;4907714;29;19927;-70
2022/07/10 02:40:33;;;;;;;;;;;;;;;15.88;100.00;99252.94;4906657;29;19927;-70
2022/07/10 02:42:58;;;;;;;;;;;;;;;16.00;100.00;99250.38;4907435;29;19982;-70
2022/07/10 02:45:24;;;;;;;;;;;;;;;16.15;100.00;99248.25;4908062;29;20304;-70
2022/07/10 02:47:51;;;;;;;;;;;;;;;16.25;100.00;99247.94;4908744;29;20445;-70
2022/07/10 02:50:17;;;;;;;;;;;;;;;16.38;100.00;99237.84;4913487;29;20298;-69
2022/07/10 02:52:43;;;;;;;;;;;;;;;16.52;100.00;99242.38;4913688;29;19926;-70
2022/07/10 02:55:09;;;;;;;;;;;;;;;16.64;100.00;99241.69;4909828;29;19934;-69
2022/07/10 02:57:36;;;;;;;;;;;;;;;16.78;100.00;99245.03;4911428;29;20026;-71
2022/07/10 03:00:02;;;;;;;;;;;;;;;16.87;100.00;99251.34;4913893;29;20025;-69
2022/07/10 03:02:30;;;;;;;;;;;;;;;16.86;100.00;99246.97;4914965;29;20366;-71
2022/07/10 03:04:57;;;;;;;;;;;;;;;16.79;100.00;99249.41;4914202;29;19982;-70
2022/07/10 03:07:23;;;;;;;;;;;;;;;16.79;100.00;99252.19;4914185;29;19927;-69
2022/07/10 03:09:49;;;;;;;;;;;;;;;16.72;100.00;99244.41;4917032;29;20323;-70
2022/07/10 03:12:14;;;;;;;;;;;;;;;16.69;100.00;99247.84;4916935;29;19927;-70
2022/07/10 03:14:40;;;;;;;;;;;;;;;16.69;100.00;99258.06;4912134;29;19933;-70
2022/07/10 03:17:06;;;;;;;;;;;;;;;16.68;100.00;99251.72;4912632;29;19966;-69
2022/07/10 03:19:33;;;;;;;;;;;;;;;16.69;100.00;99255.28;4916609;29;19927;-71
2022/07/10 03:22:00;;;;;;;;;;;;;;;16.74;100.00;99246.84;4916633;29;19927;-72
2022/07/10 03:24:26;;;;;;;;;;;;;;;16.80;100.00;99248.28;4913594;29;20203;-72
2022/07/10 03:26:52;;;;;;;;;;;;;;;16.91;100.00;99245.16;4911843;29;19936;-73
2022/07/10 03:29:17;;;;;;;;;;;;;;;16.93;100.00;99249.19;4916453;29;19926;-72
2022/07/10 03:31:43;;;;;;;;;;;;;;;16.92;100.00;99250.34;4914858;29;20359;-71
2022/07/10 03:34:10;;;;;;;;;;;;;;;16.92;100.00;99247.56;4910242;29;19949;-69
2022/07/10 03:36:35;;;;;;;;;;;;;;;16.93;100.00;99262.22;4912987;29;19970;-72
2022/07/10 03:39:02;;;;;;;;;;;;;;;16.87;100.00;99262.41;4915636;29;19981;-71
2022/07/10 03:41:29;;;;;;;;;;;;;;;16.84;100.00;99265.78;4916539;29;19934;-70
2022/07/10 03:43:55;;;;;;;;;;;;;;;16.89;100.00;99278.63;4915115;29;20268;-69
2022/07/10 03:46:21;;;;;;;;;;;;;;;16.92;100.00;99269.66;4909759;29;19942;-70
2022/07/10 03:48:46;;;;;;;;;;;;;;;16.96;100.00;99250.50;4897339;29;20399;-69
2022/07/10 03:51:12;;;;;;;;;;;;;;;17.02;100.00;99254.75;4913276;29;20385;-69
2022/07/10 03:53:38;;;;;;;;;;;;;;;17.01;100.00;99236.53;4913117;29;19927;-70
2022/07/10 03:56:05;;;;;;;;;;;;;;;17.02;100.00;99232.66;4911870;29;19962;-70
2022/07/10 03:58:31;;;;;;;;;;;;;;;17.03;100.00;99228.75;4911830;29;20446;-70
2022/07/10 04:00:57;;;;;;;;;;;;;;;17.05;100.00;99223.69;4911775;29;19966;-71
2022/07/10 04:03:22;;;;;;;;;;;;;;;17.04;100.00;99218.50;4912437;29;19974;-68
2022/07/10 04:05:48;;;;;;;;;;;;;;;17.04;100.00;99208.28;4909407;29;19953;-69
2022/07/10 04:08:14;;;;;;;;;;;;;;;17.09;100.00;99201.72;4907872;29;19982;-69
2022/07/10 04:10:40;;;;;;;;;;;;;;;17.11;100.00;99188.41;4910799;29;19934;-70
2022/07/10 04:13:07;;;;;;;;;;;;;;;17.11;100.00;99175.41;4910733;29;19938;-70
2022/07/10 04:15:33;;;;;;;;;;;;;;;17.27;100.00;99183.94;4909029;29;19970;-70
2022/07/10 04:17:59;;;;;;;;;;;;;;;17.40;100.00;99175.69;4909452;29;19958;-71
2022/07/10 04:20:25;;;;;;;;;;;;;;;17.56;100.00;99165.69;4911240;29;19982;-70
2022/07/10 04:22:50;;;;;;;;;;;;;;;17.67;100.00;99160.53;4909675;29;19962;-70
2022/07/10 04:25:16;;;;;;;;;;;;;;;17.73;100.00;99161.16;4912810;29;19966;-70
2022/07/10 04:27:42;;;;;;;;;;;;;;;17.82;100.00;99167.41;4910236;29;20018;-70
2022/07/10 04:30:10;;;;;;;;;;;;;;;17.97;100.00;99178.97;4912772;29;20474;-68
2022/07/10 04:32:36;;;;;;;;;;;;;;;18.11;100.00;99165.69;4928752;29;19931;-70
2022/07/10 04:35:02;;;;;;;;;;;;;;;18.17;100.00;99159.94;4907005;29;19959;-70
2022/07/10 04:37:29;;;;;;;;;;;;;;;18.31;100.00;99159.63;4908490;29;19934;-71
2022/07/10 04:39:54;;;;;;;;;;;;;;;18.48;100.00;99156.66;4909401;29;20033;-71
2022/07/10 04:42:20;;;;;;;;;;;;;;;18.78;100.00;99152.88;4910222;29;19931;-71
2022/07/10 04:44:46;;;;;;;;;;;;;;;19.07;100.00;99148.28;4910478;29;19927;-70
2022/07/10 04:47:13;;;;;;;;;;;;;;;19.22;100.00;99160.63;4910374;29;19927;-70
2022/07/10 04:49:39;;;;;;;;;;;;;;;19.30;100.00;99179.06;4909163;29;19926;-70
2022/07/10 04:52:05;;;;;;;;;;;;;;;19.38;100.00;99182.88;4910900;29;19982;-69
2022/07/10 04:54:32;;;;;;;;;;;;;;;19.45;100.00;99163.69;4910817;29;19931;-71
2022/07/10 04:56:57;;;;;;;;;;;;;;;19.66;100.00;99169.03;4910446;29;19927;-71
2022/07/10 04:59:23;;;;;;;;;;;;;;;19.72;100.00;99177.13;4910576;29;19946;-72
2022/07/10 05:01:49;;;;;;;;;;;;;;;19.60;100.00;99166.88;4908696;29;20435;-72
2022/07/10 05:04:16;;;;;;;;;;;;;;;19.61;100.00;99163.75;4908340;29;19927;-69
2022/07/10 05:06:42;;;;;;;;;;;;;;;19.50;100.00;99174.53;4906956;29;19927;-71
2022/07/10 05:09:08;;;;;;;;;;;;;;;19.55;100.00;99165.97;4913526;29;19933;-70
2022/07/10 05:11:33;;;;;;;;;;;;;;;19.66;100.00;99162.69;4906218;29;19930;-70
2022/07/10 05:13:59;;;;;;;;;;;;;;;19.76;100.00;99158.63;4908987;29;20318;-70
2022/07/10 05:16:25;;;;;;;;;;;;;;;19.91;100.00;99163.41;4910219;29;19975;-71
2022/07/10 05:18:50;;;;;;;;;;;;;;;19.95;100.00;99153.25;4908749;29;20033;-70
2022/07/10 05:21:18;;;;;;;;;;;;;;;20.06;100.00;99156.34;4921721;29;20395;-70
2022/07/10 05:23:43;;;;;;;;;;;;;;;20.19;100.00;99154.28;4908911;29;19982;-70
2022/07/10 05:26:09;;;;;;;;;;;;;;;20.29;100.00;99144.63;4912343;29;19931;-70
2022/07/10 05:28:36;;;;;;;;;;;;;;;20.32;100.00;99159.78;4909454;29;19927;-71
2022/07/10 05:31:02;;;;;;;;;;;;;;;20.25;100.00;99174.25;4908490;29;19973;-70
2022/07/10 05:33:28;;;;;;;;;;;;;;;20.24;100.00;99172.66;4909183;29;19974;-72
2022/07/10 05:35:53;;;;;;;;;;;;;;;20.34;100.00;99180.44;4909523;29;19926;-71
2022/07/10 05:38:21;;;;;;;;;;;;;;;20.48;100.00;99180.03;4904718;29;19974;-71
2022/07/10 05:40:47;;;;;;;;;;;;;;;20.68;100.00;99171.78;4921844;29;20456;-71
2022/07/10 05:43:12;;;;;;;;;;;;;;;20.79;100.00;99174.81;4909227;29;20025;-71
2022/07/10 05:45:38;;;;;;;;;;;;;;;20.87;100.00;99181.38;4905854;29;19927;-71
2022/07/10 05:48:04;;;;;;;;;;;;;;;20.82;100.00;99177.72;4908111;29;20098;-71
2022/07/10 05:50:30;;;;;;;;;;;;;;;20.91;100.00;99174.75;4892019;29;20399;-70
2022/07/10 05:52:56;;;;;;;;;;;;;;;20.86;100.00;99172.25;4909215;29;19930;-70
2022/07/10 05:55:23;;;;;;;;;;;;;;;20.92;100.00;99170.03;4911429;29;20018;-70
2022/07/10 05:57:50;;;;;;;;;;;;;;;21.10;100.00;99174.03;4908180;29;19977;-71
2022/07/10 06:00:16;;;;;;;;;;;;;;;21.22;100.00;99172.28;4922274;29;19975;-71
2022/07/10 06:02:42;;;;;;;;;;;;;;;21.23;100.00;99162.78;4923246;29;19931;-71
2022/07/10 06:05:08;;;;;;;;;;;;;;;21.22;100.00;99166.72;4904518;29;20291;-70
2022/07/10 06:07:34;;;;;;;;;;;;;;;21.29;100.00;99166.06;4906921;29;19927;-71
2022/07/10 06:10:00;;;;;;;;;;;;;;;21.39;100.00;99173.84;4923625;29;19927;-71
2022/07/10 06:12:27;;;;;;;;;;;;;;;21.43;100.00;99162.81;4908217;29;19985;-70
2022/07/10 06:14:54;;;;;;;;;;;;;;;21.54;100.00;99170.22;4909536;29;19926;-71
2022/07/10 06:17:20;;;;;;;;;;;;;;;21.68;100.00;99166.16;4910183;29;20017;-70
2022/07/10 06:19:46;;;;;;;;;;;;;;;21.76;100.00;99167.91;4909700;29;19935;-71
2022/07/10 06:24:56;;;;;;;;;;;;;;;21.98;99.82;99164.75;4908383;29;20462;-70
2022/07/10 06:27:21;;;;;;;;;;;;;;;22.03;99.82;99165.25;4908907;29;19927;-70
2022/07/10 06:29:48;;;;;;;;;;;;;;;21.96;100.00;99170.69;4921730;29;19982;-70
2022/07/10 06:32:14;;;;;;;;;;;;;;;22.17;100.00;99167.53;4922195;29;19975;-71
2022/07/10 06:34:40;;;;;;;;;;;;;;;22.52;100.00;99174.13;4906883;29;19927;-72
2022/07/10 06:37:06;;;;;;;;;;;;;;;22.52;96.76;99169.38;4909466;29;19926;-71
2022/07/10 06:39:35;;;;;;;;;;;;;;;22.63;96.49;99171.50;4909039;29;19927;-70
2022/07/10 06:42:01;;;;;;;;;;;;;;;22.69;94.64;99166.44;4906319;29;19933;-71
2022/07/10 06:44:27;;;;;;;;;;;;;;;22.64;95.07;99168.34;4908977;29;19927;-69
2022/07/10 06:49:39;;;;;;;;;;;;;;;22.54;92.88;99171.75;4889838;29;19934;-70
2022/07/10 06:52:05;;;;;;;;;;;;;;;22.71;94.27;99164.91;4890045;29;19962;-72
2022/07/10 06:54:31;;;;;;;;;;;;;;;22.92;90.32;99172.78;4890098;29;19927;-72
2022/07/10 06:56:57;;;;;;;;;;;;;;;23.37;89.21;99173.06;4913862;29;19930;-71
2022/07/10 06:59:23;;;;;;;;;;;;;;;23.65;84.03;99174.66;4910138;29;19934;-71
2022/07/10 07:01:48;;;;;;;;;;;;;;;23.78;81.93;99177.97;4910414;29;19933;-71
2022/07/10 07:04:16;;;;;;;;;;;;;;;23.87;82.92;99177.69;4918532;29;20572;-70
2022/07/10 07:06:41;;;;;;;;;;;;;;;23.87;79.04;99172.09;4903136;29;20355;-70
2022/07/10 07:09:07;;;;;;;;;;;;;;;23.93;80.04;99165.03;4903891;29;19930;-70
2022/07/10 07:11:33;;;;;;;;;;;;;;;23.97;78.89;99170.66;4903070;29;20026;-70
2022/07/10 07:13:59;;;;;;;;;;;;;;;24.04;80.03;99169.94;4579041;28;9999850;-70
2022/07/10 07:16:37;;;;;;;;;;;;;;;24.07;79.25;99177.56;4905541;29;20407;-70
2022/07/10 07:19:17;;;;;;;;;;;;;;;24.12;78.40;99177.22;4919081;29;20299;-72
2022/07/10 07:24:29;;;;;;;;;;;;;;;24.02;76.13;99173.13;4907452;29;20264;-71
2022/07/10 07:26:54;;;;;;;;;;;;;;;24.24;74.48;99164.16;4901062;29;19927;-72
2022/07/10 07:29:20;;;;;;;;;;;;;;;24.72;74.88;99178.19;4921766;29;19933;-72
2022/07/10 07:31:47;;;;;;;;;;;;;;;25.08;75.11;99166.50;4907218;29;19956;-71
2022/07/10 07:34:12;;;;;;;;;;;;;;;25.12;70.87;99178.50;4907145;29;20327;-72
2022/07/10 07:36:38;;;;;;;;;;;;;;;24.85;68.13;99181.50;4910710;29;19926;-72
2022/07/10 07:39:05;;;;;;;;;;;;;;;24.73;67.83;99174.19;4910230;29;20313;-72
2022/07/10 07:41:31;;;;;;;;;;;;;;;25.02;71.31;99174.44;4912658;29;19934;-71
2022/07/10 07:43:57;;;;;;;;;;;;;;;25.43;70.71;99183.88;4910886;29;20295;-71
2022/07/10 07:46:24;;;;;;;;;;;;;;;25.55;69.57;99177.97;4909775;29;19950;-72
2022/07/10 07:48:49;;;;;;;;;;;;;;;25.70;70.91;99178.06;4911352;29;20375;-71
2022/07/10 07:51:15;;;;;;;;;;;;;;;25.92;70.16;99173.34;4892272;29;19973;-72
2022/07/10 07:53:41;;;;;;;;;;;;;;;26.12;70.81;99168.19;4911197;29;19961;-73
2022/07/10 07:56:08;;;;;;;;;;;;;;;26.44;68.10;99178.69;4926711;29;19933;-71
2022/07/10 07:58:34;;;;;;;;;;;;;;;26.80;68.89;99161.09;4912341;29;19934;-71
2022/07/10 08:00:59;;;;;;;;;;;;;;;27.27;66.81;99163.06;4914538;29;19927;-68
2022/07/10 08:03:25;;;;;;;;;;;;;;;27.50;65.74;99165.41;4912361;29;19927;-70
2022/07/10 08:05:51;;;;;;;;;;;;;;;27.53;62.08;99161.00;4912031;29;20334;-70
2022/07/10 08:08:17;;;;;;;;;;;;;;;27.56;60.54;99163.00;4910057;29;19933;-70
2022/07/10 08:10:43;;;;;;;;;;;;;;;27.66;59.04;99166.97;4907503;29;20013;-71
2022/07/10 08:13:10;;;;;;;;;;;;;;;27.89;60.58;99161.66;4930376;29;19949;-69
2022/07/10 08:15:36;;;;;;;;;;;;;;;28.32;60.77;99171.06;4923227;29;19981;-69
2022/07/10 08:18:03;;;;;;;;;;;;;;;28.61;57.45;99159.63;4904868;29;20352;-70
2022/07/10 08:20:30;;;;;;;;;;;;;;;28.69;59.09;99151.91;4900885;29;20516;-70
2022/07/10 08:22:56;;;;;;;;;;;;;;;28.96;60.31;99165.38;4897995;29;19973;-69
2022/07/10 08:25:22;;;;;;;;;;;;;;;28.95;57.57;99177.81;4907584;29;19927;-68
2022/07/10 08:27:48;;;;;;;;;;;;;;;28.64;59.04;99161.59;4913927;29;20369;-71
2022/07/10 08:30:16;;;;;;;;;;;;;;;28.53;60.21;99161.69;4927371;29;19927;-69
2022/07/10 08:32:42;;;;;;;;;;;;;;;28.33;61.06;99164.22;4912906;29;20026;-69
2022/07/10 08:35:08;;;;;;;;;;;;;;;28.23;64.41;99165.91;4926317;29;20049;-69
2022/07/10 08:37:36;;;;;;;;;;;;;;;28.08;61.44;99164.38;4926085;29;19973;-70
2022/07/10 08:40:02;;;;;;;;;;;;;;;27.95;63.37;99159.22;4913116;29;19927;-70
2022/07/10 08:42:31;;;;;;;;;;;;;;;27.86;61.25;99156.84;4913250;29;19966;-70
2022/07/10 08:44:56;;;;;;;;;;;;;;;27.87;62.13;99157.66;4911825;29;19969;-69
2022/07/10 08:47:25;;;;;;;;;;;;;;;27.87;62.85;99152.84;4911330;29;19966;-70
2022/07/10 08:49:51;;;;;;;;;;;;;;;28.11;62.81;99155.13;4911954;29;19927;-71
2022/07/10 08:52:23;;;;;;;;;;;;;;;28.30;62.24;99151.78;4910205;29;19975;-70
2022/07/10 08:54:48;;;;;;;;;;;;;;;28.10;59.41;99153.50;4911273;29;19974;-70
2022/07/10 08:57:15;;;;;;;;;;;;;;;28.00;61.89;99152.38;4927229;29;19981;-70
2022/07/10 08:59:41;;;;;;;;;;;;;;;28.08;61.51;99159.53;4912652;29;19934;-70
2022/07/10 09:02:07;;;;;;;;;;;;;;;28.46;62.68;99156.09;4913970;29;19927;-70
2022/07/10 09:04:34;;;;;;;;;;;;;;;29.25;60.98;99151.81;4911489;29;19927;-69
2022/07/10 09:06:59;;;;;;;;;;;;;;;29.45;57.77;99154.03;4911325;29;19937;-70
2022/07/10 09:09:26;;;;;;;;;;;;;;;29.57;59.57;99153.47;4913157;29;19926;-70
2022/07/10 09:11:55;;;;;;;;;;;;;;;29.52;57.95;99139.88;4913718;29;19927;-68
2022/07/10 09:14:23;;;;;;;;;;;;;;;29.89;57.89;99151.47;4913122;29;19983;-68
2022/07/10 09:16:50;;;;;;;;;;;;;;;30.61;56.27;99140.38;4913435;29;19927;-69
2022/07/10 09:19:16;;;;;;;;;;;;;;;31.21;53.34;99146.19;4912865;29;19931;-69
2022/07/10 09:21:44;;;;;;;;;;;;;;;31.25;49.53;99143.31;4913560;29;20141;-69
2022/07/10 09:24:10;;;;;;;;;;;;;;;31.27;51.80;99138.03;4910767;29;19933;-70
2022/07/10 09:26:37;;;;;;;;;;;;;;;31.45;53.65;99140.50;4909322;29;20034;-70
2022/07/10 09:29:07;;;;;;;;;;;;;;;31.79;52.58;99136.59;4908905;29;19954;-70
2022/07/10 09:31:48;;;;;;;;;;;;;;;32.17;54.25;99131.72;4910841;29;19952;-71
2022/07/10 09:34:13;;;;;;;;;;;;;;;32.75;53.13;99133.16;4926254;29;20403;-70
2022/07/10 09:36:39;;;;;;;;;;;;;;;32.98;49.13;99122.91;4894141;29;19977;-69
2022/07/10 09:39:06;;;;;;;;;;;;;;;33.08;49.25;99128.25;4909193;29;19934;-68
2022/07/10 09:41:32;;;;;;;;;;;;;;;33.28;50.22;99132.19;4911331;29;19927;-70
2022/07/10 09:43:59;;;;;;;;;;;;;;;33.50;46.95;99123.91;4910358;29;19934;-70
2022/07/10 09:46:25;;;;;;;;;;;;;;;33.52;45.43;99127.09;4912319;29;19955;-69
2022/07/10 09:49:08;;;;;;;;;;;;;;;33.55;46.93;99125.38;4910021;29;19975;-68
2022/07/10 09:51:34;;;;;;;;;;;;;;;33.70;48.17;99125.75;4926309;29;19937;-69
2022/07/10 09:54:01;;;;;;;;;;;;;;;34.23;48.60;99123.31;4910262;29;20391;-70
2022/07/10 09:56:30;;;;;;;;;;;;;;;34.64;46.45;99128.50;4925493;29;19986;-69
2022/07/10 09:58:59;;;;;;;;;;;;;;;34.72;44.55;99123.38;4909820;29;19927;-70
2022/07/10 10:01:27;;;;;;;;;;;;;;;34.29;46.94;99123.53;4911408;29;20815;-69
2022/07/10 10:03:53;;;;;;;;;;;;;;;34.12;45.50;99117.19;4911868;29;19934;-68
2022/07/10 10:06:20;;;;;;;;;;;;;;;33.77;43.87;99115.00;4909036;29;20295;-69
2022/07/10 10:08:51;;;;;;;;;;;;;;;33.40;45.02;99110.81;4922074;29;20388;-68
2022/07/10 10:11:19;;;;;;;;;;;;;;;33.58;47.93;99105.44;4900961;29;19927;-69
2022/07/10 10:13:47;;;;;;;;;;;;;;;34.02;44.41;99104.94;4909093;29;20026;-68
2022/07/10 10:16:12;;;;;;;;;;;;;;;34.31;46.68;99106.84;4912185;29;19927;-70
2022/07/10 10:20:36;;;;;;;;;;;;;;;34.45;44.52;99104.78;4909572;29;19933;-69
2022/07/10 10:21:25;;;;;;;;;;;;;;;34.37;41.81;99104.22;4909924;29;19962;-70
2022/07/10 10:23:52;;;;;;;;;;;;;;;34.19;43.79;99097.13;4907776;29;19927;-70
2022/07/10 10:26:18;;;;;;;;;;;;;;;34.23;42.75;99102.66;4909883;29;19927;-68
2022/07/10 10:28:45;;;;;;;;;;;;;;;34.46;36.93;99103.53;4910369;29;20029;-70
2022/07/10 10:31:11;;;;;;;;;;;;;;;34.44;33.90;99100.38;4910434;29;19950;-68
2022/07/10 10:33:42;;;;;;;;;;;;;;;34.90;31.70;99095.16;4910563;29;20076;-69
2022/07/10 10:36:08;;;;;;;;;;;;;;;35.40;29.71;99093.81;4926727;29;19927;-68
2022/07/10 10:38:51;;;;;;;;;;;;;;;35.29;27.78;99088.53;4911527;29;19934;-69
2022/07/10 10:41:23;;;;;;;;;;;;;;;35.12;27.81;99096.47;4909919;29;19939;-70
2022/07/10 10:44:18;;;;;;;;;;;;;;;35.42;27.94;99088.47;4911157;29;19927;-69
2022/07/10 10:46:53;;;;;;;;;;;;;;;35.75;26.48;99074.63;4559403;28;10000538;-69
2022/07/10 10:49:20;;;;;;;;;;;;;;;35.45;27.47;99090.38;4895132;29;20415;-68
2022/07/10 10:51:59;;;;;;;;;;;;;;;35.81;27.73;99083.31;4902694;29;20471;-68
2022/07/10 10:54:24;;;;;;;;;;;;;;;36.20;27.13;99074.47;4906181;29;19934;-70
2022/07/10 10:57:05;;;;;;;;;;;;;;;36.37;26.36;99089.22;4908150;29;19927;-69
2022/07/10 10:59:46;;;;;;;;;;;;;;;36.42;25.90;99085.75;4900363;29;20088;-72
2022/07/10 11:02:24;;;;;;;;;;;;;;;36.69;25.33;99078.53;4889082;29;19960;-70
2022/07/10 11:04:50;;;;;;;;;;;;;;;36.55;25.19;99073.47;4921386;29;19926;-69
2022/07/10 11:07:36;;;;;;;;;;;;;;;36.01;25.61;99067.94;4639751;28;10000109;-69
2022/07/10 11:10:20;;;;;;;;;;;;;;;35.54;26.42;99084.78;4891979;29;20534;-69
2022/07/10 11:12:59;;;;;;;;;;;;;;;35.23;26.80;99099.72;4892278;29;19972;-68
2022/07/10 11:15:29;;;;;;;;;;;;;;;35.45;26.79;99087.53;4892143;29;19934;-69
2022/07/10 11:17:55;;;;;;;;;;;;;;;35.79;25.81;99080.16;4891866;29;19975;-69
2022/07/10 11:20:21;;;;;;;;;;;;;;;35.02;27.02;99089.91;4890119;29;19951;-69
2022/07/10 11:22:54;;;;;;;;;;;;;;;34.16;28.49;99085.88;4910342;29;19927;-69
2022/07/10 11:25:28;;;;;;;;;;;;;;;33.18;29.01;99078.25;4912730;29;19927;-69
2022/07/10 11:28:07;;;;;;;;;;;;;;;32.31;30.56;99086.13;4912076;29;19934;-66
2022/07/10 11:30:44;;;;;;;;;;;;;;;31.67;31.62;99092.03;4911152;29;20030;-68
2022/07/10 11:33:10;;;;;;;;;;;;;;;31.46;32.22;99079.97;4912535;29;20390;-69
2022/07/10 11:35:37;;;;;;;;;;;;;;;32.74;31.28;99086.28;4926386;29;19927;-70
2022/07/10 11:38:03;;;;;;;;;;;;;;;33.99;28.60;99079.56;4909933;29;19927;-69
2022/07/10 11:40:29;;;;;;;;;;;;;;;34.83;28.46;99081.22;4913223;29;20391;-69
2022/07/10 11:42:55;;;;;;;;;;;;;;;34.98;27.84;99083.56;4905571;29;19969;-68
2022/07/10 11:45:24;;;;;;;;;;;;;;;35.27;27.12;99080.47;4909946;29;19927;-67
2022/07/10 11:47:52;;;;;;;;;;;;;;;36.05;26.62;99080.75;4907605;29;20315;-69
2022/07/10 11:50:18;;;;;;;;;;;;;;;37.06;25.33;99080.63;4910362;29;20025;-70
2022/07/10 11:52:45;;;;;;;;;;;;;;;36.60;25.99;99085.03;4925435;29;19950;-69
2022/07/10 11:55:16;;;;;;;;;;;;;;;35.89;27.05;99072.44;4911752;29;19934;-69
2022/07/10 11:57:42;;;;;;;;;;;;;;;36.00;27.02;99074.88;4909260;29;19927;-69
2022/07/10 12:00:20;;;;;;;;;;;;;;;36.39;27.30;99071.69;4906563;29;19927;-69
2022/07/10 12:02:45;;;;;;;;;;;;;;;36.37;26.72;99069.31;4907798;29;19950;-69
2022/07/10 12:05:26;;;;;;;;;;;;;;;35.67;27.45;99063.97;4903641;29;20391;-69
2022/07/10 12:07:53;;;;;;;;;;;;;;;35.67;27.40;99063.97;4913907;29;20328;-69
2022/07/10 12:10:19;;;;;;;;;;;;;;;36.25;27.21;99061.69;4913710;29;19927;-69
2022/07/10 12:12:45;;;;;;;;;;;;;;;35.29;27.64;99043.88;4915044;29;20347;-69
2022/07/10 12:15:11;;;;;;;;;;;;;;;33.65;29.24;99059.09;4911301;29;19926;-69
2022/07/10 12:17:49;;;;;;;;;;;;;;;32.60;30.87;99045.81;4910832;29;19931;-69
2022/07/10 12:20:14;;;;;;;;;;;;;;;33.07;30.73;99043.78;4911804;29;19978;-69
2022/07/10 12:22:40;;;;;;;;;;;;;;;33.48;30.30;99053.53;4911706;29;19927;-67
2022/07/10 12:25:09;;;;;;;;;;;;;;;34.85;27.76;99044.66;4912396;29;19949;-69
2022/07/10 12:27:39;;;;;;;;;;;;;;;36.05;26.54;99038.09;4926180;29;19926;-68
2022/07/10 12:30:05;;;;;;;;;;;;;;;36.89;25.59;99040.25;4912843;29;20375;-69
2022/07/10 12:32:31;;;;;;;;;;;;;;;37.46;24.54;99036.06;4912826;29;19990;-68
2022/07/10 12:34:58;;;;;;;;;;;;;;;37.90;24.33;99029.09;4909857;29;19975;-67
2022/07/10 12:37:24;;;;;;;;;;;;;;;37.92;24.35;99025.78;4924347;29;19927;-69
2022/07/10 12:39:52;;;;;;;;;;;;;;;37.39;24.68;99030.69;4912969;29;19934;-69
2022/07/10 12:42:26;;;;;;;;;;;;;;;36.74;24.52;99023.03;4912023;29;19934;-68
2022/07/10 12:44:51;;;;;;;;;;;;;;;36.18;25.12;99020.13;4910782;29;19974;-69
2022/07/10 12:47:19;;;;;;;;;;;;;;;36.17;25.67;99018.53;4911357;29;20127;-68
2022/07/10 12:49:52;;;;;;;;;;;;;;;36.50;25.36;99012.25;4909674;29;19934;-70
2022/07/10 12:52:22;;;;;;;;;;;;;;;36.97;24.30;99023.66;4908217;29;19926;-71